Milford, Utah Weather observations

Data are for observation ending at time listed.
 Day   Time    Ave.   Ave.  Ave.  Vector   Max.   Stn.    Total    Solar   Ave.  
  of    of     Air    Rel.  Wind   Wind    Wind   Baro.  Precip.   Rad.    Soil  
Year   Day     Temp.  Hum.  Speed  Dir.    Gust   Pres.                    Temp. 
2016   (MST)    F      %     mph   deg.    mph     mb.     in.     W/m2     F   
------------------------------------------------------------------------------
 151    1:10   51.9    61    0.3     6      1.5   845.9    0.00       0    64.3
 151    1:20   51.4    60    0.6    34      1.7   845.9    0.00       0    64.3
 151    1:30   50.4    59    1.1    15      4.5   845.9    0.00       0    64.3
 151    1:40   49.9    61    0.5     7      2.9   845.9    0.00       0    64.3
 151    1:50   49.9    60    0.0     0      0.0   845.8    0.00       0    64.2
 151    2:00   50.1    58    0.4   240      2.2   845.7    0.00       0    64.2
 151    2:10   48.9    60    1.8    41      3.8   845.7    0.00       0    64.1
 151    2:20   47.2    61    1.6    23      3.7   845.8    0.00       0    64.1
 151    2:30   47.2    63    0.3   354      2.0   845.8    0.00       0    64.1
 151    2:40   47.5    61    1.2     9      4.2   846.1    0.00       0    64.1
 151    2:50   47.9    60    3.0    29      4.5   846.2    0.00       0    64.0
 151    3:00   47.3    61    3.6    15      6.4   846.3    0.00       0    64.0
 151    3:10   47.1    61    2.5     5      6.1   846.5    0.00       0    63.9
 151    3:20   47.2    63    2.3   358      7.1   846.6    0.00       0    63.9
 151    3:30   47.4    64    1.6   340      4.4   846.5    0.00       0    63.8
 151    3:40   48.1    63    1.3   342      4.9   846.4    0.00       0    63.8
 151    3:50   49.2    63    2.4    19      6.1   846.5    0.00       0    63.7
 151    4:00   48.7    62    1.1    86      5.6   846.7    0.00       0    63.7
 151    4:10   45.2    69    0.8    32      3.6   846.7    0.00       0    63.7
 151    4:20   44.5    73    0.1   358      0.8   846.7    0.00       0    63.6
 151    4:30   45.8    71    0.0     0      0.0   846.6    0.00       0    63.6
 151    4:40   47.0    71    0.0     0      0.0   846.4    0.00       0    63.5
 151    4:50   50.2    70    0.4     9      2.0   846.4    0.00       0    63.5
 151    5:00   50.3    65    1.7    34      3.8   846.5    0.00       0    63.4
 151    5:10   46.0    70    0.7    33      3.1   846.7    0.00       0    63.4
 151    5:20   45.9    75    0.9     5      3.7   846.7    0.00       3    63.3
 151    5:30   46.7    75    0.2     2      1.4   846.6    0.00      10    63.3
 151    5:40   47.1    73    1.0   165      3.1   846.7    0.00      23    63.2
 151    5:50   47.0    73    0.5   285      1.5   846.8    0.00      36    63.2
 151    6:00   47.9    73    0.0     0      0.0   846.9    0.00      67    63.1
 151    6:10   50.7    71    1.2     9      2.6   846.9    0.00     120    63.0
 151    6:20   52.2    65    1.7    23      2.7   847.2    0.00     145    63.0
 151    6:30   54.1    61    0.8    43      2.2   847.5    0.00     173    62.9
 151    6:40   53.8    63    0.1    12      1.4   847.7    0.00      86    62.8
 151    6:50   55.5    62    0.0     0      0.0   847.8    0.00     215    62.8
 151    7:00   57.8    58    0.1    67      1.5   848.0    0.00     234    62.7
 151    7:10   59.3    55    0.3   107      1.6   848.2    0.00     140    62.7
 151    7:20   57.7    62    0.2   250      1.3   848.2    0.02     163    62.7
 151    7:30   59.2    57    0.2    55      2.0   848.2    0.02     293    62.7
 151    7:40   60.4    54    0.6    38      3.1   848.2    0.02     329    62.7
 151    7:50   60.7    54    1.7   144      4.0   848.1    0.01     361    62.6
 151    8:00   60.8    53    2.0   152      4.2   848.1    0.00     394    62.6
 151    8:10   62.0    52    1.2   155      2.5   848.2    0.01     426    62.5
 151    8:20   63.3    49    0.5   156      2.5   848.2    0.00     461    62.5
 151    8:30   64.0    48    1.2   106      3.9   848.3    0.00     486    62.4
 151    8:40   63.3    47    2.7    35      4.6   848.6    0.00     517    62.4
 151    8:50   64.9    45    0.9    36      4.5   848.7    0.00     541    62.4
 151    9:00   65.9    44    1.8    16      8.0   848.9    0.00     566    62.4
 151    9:10   65.4    41    5.1    17      8.8   849.1    0.00     594    62.4
 151    9:20   66.0    40    4.7    19      9.9   849.2    0.00     615    62.4
 151    9:30   66.3    39    5.0    24      9.8   849.3    0.00     635    62.4
 151    9:40   66.7    39    4.9    22     10.5   849.3    0.00     656    62.4
 151    9:50   67.2    38    6.3    23     10.9   849.3    0.00     686    62.4
 151   10:00   68.0    38    5.1    23      9.7   849.3    0.00     706    62.5
 151   10:10   68.6    36    5.5    22     11.2   849.2    0.00     716    62.4
 151   10:20   69.0    34    5.7    25     11.7   849.3    0.00     746    62.5
 151   10:30   70.6    33    4.9    26      9.6   849.3    0.00     759    62.5
 151   10:40   71.7    31    4.2    20     12.5   849.3    0.00     769    62.5
 151   10:50   72.6    28    5.4    18     11.8   849.3    0.00     792    62.6
 151   11:00   73.2    28    5.7    18     11.2   849.4    0.00     802    62.6
 151   11:10   74.0    26    6.1    24     14.8   849.3    0.00     819    62.6
 151   11:20   73.5    26    7.4    16     14.0   849.3    0.00     824    62.6
 151   11:30   74.2    26    5.8    16     12.1   849.3    0.00     845    62.7
 151   11:40   75.0    25    6.7    13     13.6   849.2    0.00     836    62.8
 151   11:50   74.9    24    6.1    16     13.4   849.1    0.00     871    62.8
 151   12:00   75.6    24    5.7    13     12.1   849.0    0.00     879    62.9
 151   12:10   75.8    23    6.5    16     14.2   849.0    0.00     891    63.0
 151   12:20   76.1    23    5.5    12     11.2   848.9    0.00     875    63.1
 151   12:30   76.7    23    5.0    17     11.4   848.9    0.00     872    63.2
 151   12:40   77.2    22    5.0     1     11.5   848.9    0.00     875    63.2
 151   12:50   77.6    20    4.5     5     15.3   848.9    0.00     884    63.3
 151   13:00   77.1    21    8.9    17     20.1   849.0    0.00     876    63.4
 151   13:10   77.0    20    6.5    13     14.8   849.1    0.00     842    63.4
 151   13:20   77.3    19    6.0    10     14.5   849.1    0.00     865    63.5
 151   13:30   77.7    18    6.2     6     14.2   849.1    0.00     864    63.6
 151   13:40   77.9    18    5.4     9     16.4   849.0    0.00     861    63.6
 151   13:50   78.2    18    4.2     5     10.3   848.9    0.00     852    63.7
 151   14:00   78.5    17    4.5    12     14.2   848.9    0.00     839    63.8
 151   14:10   78.1    17    6.8    18     17.2   848.8    0.00     828    63.8
 151   14:20   77.8    19    6.4    15     13.9   848.7    0.00     822    63.9
 151   14:30   77.9    19    9.0    19     15.4   848.8    0.00     691    64.0
 151   14:40   78.4    19    4.8    11     15.4   848.6    0.00     808    64.1
 151   14:50   79.1    18    6.2    16     16.8   848.6    0.00     780    64.1
 151   15:00   78.7    17    8.2    19     15.6   848.5    0.00     658    64.1
 151   15:10   78.7    17    6.5    16     13.5   848.5    0.00     718    64.2
 151   15:20   78.9    16    8.0    19     13.9   848.4    0.00     697    64.3
 151   15:30   78.7    16    6.6    14     16.1   848.2    0.00     675    64.4
 151   15:40   78.8    16    7.4    22     13.2   848.2    0.00     655    64.5
 151   15:50   78.7    17    6.6    10     15.0   848.1    0.00     625    64.5
 151   16:00   78.7    17    4.5    12     13.2   848.1    0.00     603    64.6
 151   16:10   78.4    15    8.7    19     20.3   848.1    0.00     581    64.6
 151   16:20   78.4    16    7.7    17     12.2   848.0    0.00     540    64.7
 151   16:30   78.1    15    7.1    15     14.3   847.9    0.00     502    64.7
 151   16:40   78.3    16    4.7     7     14.8   847.8    0.00     501    64.8
 151   16:50   78.1    16    6.1    10     15.5   847.7    0.00     426    64.9
 151   17:00   77.6    17    4.6     4     13.2   847.5    0.00     189    64.9
 151   17:10   77.9    16    7.0    20     16.4   847.3    0.00      72    64.9
 151   17:20   77.8    17    7.5    13     16.2   847.2    0.00      41    64.9
 151   17:30   77.4    17    6.3    12     14.3   847.1    0.00      58    65.0
 151   17:40   77.2    17    6.6    13     15.1   847.1    0.00      65    65.0
 151   17:50   76.8    18    5.5     7     11.8   847.0    0.00      80    65.0
 151   18:00   77.0    18    7.1    20     13.1   846.9    0.00      29    65.1
 151   18:10   76.9    18    7.8    15     15.1   846.8    0.00      28    65.1
 151   18:20   76.7    18    8.3    16     14.0   846.8    0.00      29    65.1
 151   18:30   76.6    18    7.2    19     11.5   846.8    0.00      27    65.1
 151   18:40   76.3    18    7.5    19     13.0   846.8    0.00      19    65.1
 151   18:50   75.8    19    6.7    22     11.2   846.8    0.00      18    65.2
 151   19:00   75.3    18    5.7     9     11.2   846.8    0.00      13    65.1
 151   19:10   74.9    18    5.4    13     10.0   846.7    0.00      12    65.1
 151   19:20   74.5    19    5.2    12      8.8   846.7    0.00      12    65.1
 151   19:30   73.9    20    6.6    19     10.6   846.8    0.00      12    65.1
 151   19:40   72.8    22    5.2    15      8.6   846.8    0.00      10    65.1
 151   19:50   71.7    22    4.2    12      7.9   846.8    0.00       6    65.1
 151   20:00   71.1    22    3.2     7      6.3   846.8    0.00       0    65.1
 151   20:10   70.3    22    2.9     5      6.3   846.7    0.00       0    65.1
 151   20:20   69.4    23    2.3     6      5.2   846.7    0.00       0    65.1
 151   20:30   68.3    24    1.4     4      4.2   846.7    0.00       0    65.1
 151   20:40   67.4    24    1.4     0      4.0   846.8    0.00       0    65.1
 151   20:50   66.8    25    0.8   327      2.9   846.7    0.00       0    65.1
 151   21:00   66.0    26    0.5   333      2.3   846.8    0.00       0    65.1
 151   21:10   65.4    26    0.8     9      3.8   846.8    0.00       0    65.1
 151   21:20   65.6    26    1.8     5      3.7   846.8    0.00       0    65.0
 151   21:30   65.4    25    1.9   357      5.0   846.8    0.00       0    65.0
 151   21:40   65.1    25    1.8   354      5.0   846.9    0.00       0    65.0
 151   21:50   64.7    26    1.9     5      4.1   847.0    0.00       0    65.0
 151   22:00   64.4    26    2.4    10      6.1   847.0    0.00       0    64.9
 151   22:10   63.8    27    2.6    10      7.1   847.0    0.00       0    64.9
 151   22:20   63.7    27    2.8     3      6.1   846.9    0.00       0    64.9
 151   22:30   63.5    28    2.4   356      7.2   846.9    0.00       0    64.9
 151   22:40   62.1    30    2.8    15      6.7   847.0    0.00       0    64.8
 151   22:50   58.9    34    1.6    27      3.4   846.9    0.00       0    64.8
 151   23:00   56.9    38    0.4   327      2.4   846.8    0.00       0    64.8
 151   23:10   57.0    37    0.7    20      2.0   846.7    0.00       0    64.8
 151   23:20   58.2    34    0.9     5      2.3   846.5    0.00       0    64.8
 151   23:30   59.4    33    1.4     7      2.9   846.5    0.00       0    64.8
 151   23:40   60.5    31    1.5    10      3.1   846.5    0.00       0    64.7
 151   23:50   60.8    31    1.5    16      2.8   846.4    0.00       0    64.7
 152    0:00   61.0    30    1.4     8      2.9   846.4    0.00       0    64.7
 152    0:10   61.3    29    1.0     2      2.6   846.4    0.00       0    64.6
 152    0:20   61.7    29    0.8     2      3.7   846.3    0.00       0    64.6
 152    0:30   62.0    28    1.7    17      4.9   846.4    0.00       0    64.6
 152    0:40   58.4    34    3.2    20      5.1   846.4    0.00       0    64.5
 152    0:50   56.7    35    1.5     5      4.2   846.3    0.00       0    64.5
 152    1:00   59.4    31    3.1    10      5.3   846.2    0.00       0    64.4

Return to Milford, Utah graphs page.


Western Regional Climate Center,wrcc@dri.edu